ADDS METAR Data INFO
IDs: Format: Raw Decoded Include TAF

Data at: 0734 UTC 21 Jul 2018

PAOR 210653Z 26004KT 10SM FEW085 FEW180 16/09 A3020 RMK AO2 SLP222 T01610094
PAOR 210553Z 00000KT 10SM FEW085 FEW220 19/10 A3019 RMK AO2 SLP217 T01940100 10250 20194 53004
PAOR 210453Z AUTO VRB03KT 10SM CLR 23/07 A3018 RMK AO2 SLP212 T02280072 TSNO
PAOR 210353Z AUTO 27003KT 10SM CLR 24/07 A3017 RMK AO2 SLP210 T02390072 TSNO
PAOR 210253Z AUTO VRB04KT 10SM CLR 24/08 A3017 RMK AO2 SLP213 T02440078 56009 TSNO
PAOR 210153Z AUTO 33008KT 10SM FEW080 25/09 A3018 RMK AO2 SLP215 T02500089 TSNO
PAOR 210053Z 27007KT 10SM FEW070 24/09 A3019 RMK AO2 SLP218 T02440094
PAOR 202353Z VRB04KT 10SM SCT070 23/09 A3020 RMK AO2 SLP224 T02330089 10239 20172 58010
PAOR 202253Z 30004KT 10SM FEW150 23/09 A3021 RMK AO2 SLP227 T02330089
PAOR 202153Z 32007KT 10SM SCT180 23/09 A3022 RMK AO2 SLP228 T02330094
PAOR 202053Z VRB03KT 10SM FEW140 22/10 A3023 RMK AO2 SLP233 T02170100 58006
PAOR 201953Z 35005KT 10SM SCT130 21/12 A3025 RMK AO2 SLP237 T02060117
PAOR 201853Z 00000KT 10SM BKN130 18/12 A3025 RMK AO2 SLP241 T01780117
PAOR 201753Z 00000KT 10SM CLR 17/11 A3025 RMK AO2 SLP240 T01720111 10172 20100 50002
PAOR 201653Z 33005KT 10SM BKN180 16/11 A3025 RMK AO2 SLP240 T01610111
PAOR 201553Z AUTO 32004KT 10SM CLR 14/11 A3025 RMK AO2 SLP239 T01440106 TSNO
PAOR 201453Z AUTO 26003KT 10SM FEW085 SCT170 SCT210 12/10 A3024 RMK AO2 SLP238 T01220100 52010 TSNO
PAOR 201353Z 00000KT 10SM FEW085 SCT170 SCT210 11/11 A3023 RMK AO2 SLP236 T01060106
PAOR 201253Z 00000KT 10SM FEW085 SCT120 SCT200 11/10 A3022 RMK AO2 SLP232 T01060100
PAOR 201153Z 00000KT 10SM SCT120 SCT190 11/09 A3021 RMK AO2 SLP229 T01110094 10183 20106 51008
PAOR 201053Z 24003KT 10SM SCT100 SCT170 12/09 A3020 RMK AO2 SLP225 T01170094
PAOR 200953Z 00000KT 10SM BKN110 BKN170 14/09 A3020 RMK AO2 SLP222 T01390094
PAOR 200853Z 31003KT 10SM BKN080 BKN110 14/10 A3019 RMK AO2 SLP218 T01440100 402390061 51014
PAOR 200753Z 32004KT 10SM BKN080 BKN100 16/10 A3017 RMK AO2 SLP213 T01560100
PAOR 200653Z 00000KT 10SM SCT085 SCT090 SCT180 17/09 A3016 RMK AO2 SLP209 T01670089
PAOR 200553Z 26004KT 10SM SCT100 18/08 A3014 RMK AO2 SLP206 T01830083 10239 20178 53010
PAOR 200453Z AUTO 00000KT 10SM OVC100 20/08 A3013 RMK AO2 SLP202 T02000083 TSNO
PAOR 200353Z AUTO VRB04KT 10SM BKN100 22/08 A3012 RMK AO2 SLP197 T02170083 TSNO
PAOR 200253Z AUTO VRB04KT 10SM SCT090 23/06 A3011 RMK AO2 SLP195 T02280056 56006 TSNO
PAOR 200153Z 00000KT 10SM BKN090 22/08 A3012 RMK AO2 SLP198 T02220078
PAOR 200053Z VRB05KT 10SM FEW085 23/06 A3012 RMK AO2 SLP202 T02280061
PAOR 192353Z 25004KT 10SM FEW085 22/06 A3013 RMK AO2 SLP206 T02220056 10233 20150 58006
PAOR 192253Z 22004KT 10SM FEW080 BKN110 21/07 A3014 RMK AO2 SLP211 T02110072
PAOR 192153Z 00000KT 10SM SCT080 22/06 A3015 RMK AO2 SLP210 T02170056
PAOR 192053Z 01004KT 10SM FEW085 22/06 A3015 RMK AO2 SLP210 T02170061 58008
PAOR 191953Z 00000KT 10SM SCT140 21/07 A3016 RMK AO2 SLP211 T02060067